createdAt,value
2022-12-11T00:02:21.511Z,3.58
2022-12-11T00:05:24.110Z,3.57
2022-12-11T00:08:26.301Z,3.53
2022-12-11T00:11:28.681Z,3.51
2022-12-11T00:14:31.121Z,3.44
2022-12-11T00:17:33.310Z,3.46
2022-12-11T00:20:35.493Z,3.45
2022-12-11T00:23:38.043Z,3.51
2022-12-11T00:26:40.366Z,3.56
2022-12-11T00:29:42.670Z,3.47
2022-12-11T00:32:44.862Z,3.47
2022-12-11T00:35:48.008Z,3.49
2022-12-11T00:38:50.794Z,3.49
2022-12-11T00:41:52.981Z,3.45
2022-12-11T00:44:56.429Z,3.45
2022-12-11T00:47:58.843Z,3.44
2022-12-11T00:51:01.095Z,3.44
2022-12-11T00:54:03.762Z,3.37
2022-12-11T00:57:05.903Z,3.38
2022-12-11T01:00:08.701Z,3.37
2022-12-11T01:03:14.015Z,3.32
2022-12-11T01:06:18.832Z,3.31
2022-12-11T01:09:39.423Z,3.35
2022-12-11T01:12:41.592Z,3.30
2022-12-11T01:15:45.491Z,3.27
2022-12-11T01:18:47.679Z,3.25
2022-12-11T01:21:49.909Z,3.28
2022-12-11T01:24:52.079Z,3.28
2022-12-11T01:27:55.116Z,3.25
2022-12-11T01:30:57.468Z,3.28
2022-12-11T01:33:59.683Z,3.29
2022-12-11T01:37:01.871Z,3.29
2022-12-11T01:40:05.699Z,3.26
2022-12-11T01:43:10.837Z,3.26
2022-12-11T01:46:13.058Z,3.25
2022-12-11T01:49:17.228Z,3.22
2022-12-11T01:52:21.702Z,3.30
2022-12-11T01:55:24.056Z,3.31
2022-12-11T01:58:30.874Z,3.19
2022-12-11T02:01:41.260Z,3.01
2022-12-11T02:04:44.385Z,2.84
2022-12-11T02:07:49.261Z,2.63
2022-12-11T02:11:07.383Z,2.73
2022-12-11T02:14:17.785Z,2.63
2022-12-11T02:17:26.309Z,2.45
2022-12-11T02:20:35.037Z,2.41
2022-12-11T02:24:19.171Z,2.41
2022-12-11T02:27:36.528Z,2.36
2022-12-11T02:30:40.156Z,2.23
2022-12-11T02:33:57.644Z,2.21
2022-12-11T02:37:03.328Z,2.08
2022-12-11T02:40:08.643Z,2.08
2022-12-11T02:43:13.362Z,2.09
2022-12-11T02:46:17.987Z,1.94
2022-12-11T02:49:21.316Z,1.90
2022-12-11T02:52:25.119Z,1.83
2022-12-11T02:55:28.821Z,1.85
2022-12-11T02:58:32.771Z,1.85
2022-12-11T03:01:35.006Z,1.83
2022-12-11T03:04:37.746Z,1.85
2022-12-11T03:07:41.891Z,1.85
2022-12-11T03:10:45.373Z,1.91
2022-12-11T03:13:47.539Z,1.81
2022-12-11T03:16:56.458Z,1.80
2022-12-11T03:20:13.095Z,1.74
2022-12-11T03:23:27.286Z,1.78
2022-12-11T03:26:30.921Z,1.73
2022-12-11T03:29:39.873Z,1.78
2022-12-11T03:32:51.202Z,1.80
2022-12-11T03:36:04.188Z,1.77
2022-12-11T03:39:10.873Z,1.70
2022-12-11T03:42:14.648Z,1.60
2022-12-11T03:45:18.079Z,1.50
2022-12-11T03:48:21.002Z,1.48
2022-12-11T03:51:24.314Z,1.45
2022-12-11T03:54:26.949Z,1.48
2022-12-11T03:57:34.785Z,1.43
2022-12-11T04:00:37.000Z,1.45
2022-12-11T04:03:39.469Z,1.64
2022-12-11T04:06:41.713Z,1.70
2022-12-11T04:09:43.897Z,1.79
2022-12-11T04:12:46.037Z,1.73
2022-12-11T04:15:49.346Z,1.71
2022-12-11T04:19:09.952Z,1.81
2022-12-11T04:22:32.430Z,1.72
2022-12-11T04:25:34.634Z,1.73
2022-12-11T04:28:37.146Z,1.70
2022-12-11T04:31:39.354Z,1.61
2022-12-11T04:34:41.498Z,1.47
2022-12-11T04:37:43.628Z,1.53
2022-12-11T04:40:45.802Z,1.36
2022-12-11T04:43:48.010Z,1.30
2022-12-11T04:46:50.225Z,1.41
2022-12-11T04:49:52.422Z,1.55
2022-12-11T04:52:55.923Z,1.50
2022-12-11T04:55:58.218Z,1.51
2022-12-11T04:59:01.105Z,1.50
2022-12-11T05:02:03.918Z,1.53
2022-12-11T05:05:07.716Z,1.37
2022-12-11T05:08:10.039Z,1.43
2022-12-11T05:11:13.984Z,1.52
2022-12-11T05:14:16.139Z,1.67
2022-12-11T05:17:18.336Z,1.46
2022-12-11T05:20:20.494Z,1.24
2022-12-11T05:23:22.775Z,1.18
2022-12-11T05:26:25.075Z,1.09
2022-12-11T05:29:27.255Z,1.24
2022-12-11T05:32:29.498Z,1.16
2022-12-11T05:35:32.268Z,1.27
2022-12-11T05:38:34.508Z,1.17
2022-12-11T05:41:36.667Z,1.18
2022-12-11T05:44:38.849Z,1.09
2022-12-11T05:47:41.012Z,0.95
2022-12-11T05:50:43.184Z,1.04
2022-12-11T05:53:46.475Z,1.05
2022-12-11T05:56:50.717Z,1.08
2022-12-11T05:59:52.852Z,1.03
2022-12-11T06:02:55.079Z,0.96
2022-12-11T06:05:57.260Z,0.98
2022-12-11T06:09:00.548Z,1.00
2022-12-11T06:12:02.755Z,0.94
2022-12-11T06:15:05.713Z,1.01
2022-12-11T06:18:08.018Z,0.98
2022-12-11T06:21:15.183Z,1.01
2022-12-11T06:24:17.335Z,1.14
2022-12-11T06:27:19.520Z,1.15
2022-12-11T06:30:21.882Z,1.00
2022-12-11T06:33:40.873Z,1.03
2022-12-11T06:36:43.053Z,1.16
2022-12-11T06:39:45.242Z,1.13
2022-12-11T06:42:47.445Z,1.14
2022-12-11T06:45:49.720Z,1.15
2022-12-11T06:48:52.208Z,1.15
2022-12-11T06:51:54.359Z,1.26
2022-12-11T06:54:57.026Z,1.34
2022-12-11T06:57:59.182Z,1.35
2022-12-11T07:01:02.093Z,1.08
2022-12-11T07:04:04.359Z,1.09
2022-12-11T07:07:07.294Z,1.12
2022-12-11T07:10:09.867Z,1.14
2022-12-11T07:13:12.147Z,1.20
2022-12-11T07:16:15.916Z,1.03
2022-12-11T07:19:18.689Z,0.93
2022-12-11T07:22:21.056Z,1.03
2022-12-11T07:25:23.193Z,0.90
2022-12-11T07:28:26.260Z,0.79
2022-12-11T07:31:29.746Z,0.83
2022-12-11T07:34:32.303Z,0.80
2022-12-11T07:37:34.503Z,0.71
2022-12-11T07:40:36.887Z,0.84
2022-12-11T07:43:39.116Z,0.98
2022-12-11T07:46:41.602Z,0.97
2022-12-11T07:49:43.821Z,0.94
2022-12-11T07:52:46.199Z,0.90
2022-12-11T07:55:48.342Z,0.90
2022-12-11T07:58:50.850Z,0.90
2022-12-11T08:01:53.095Z,0.82
2022-12-11T08:04:55.259Z,0.93
2022-12-11T08:07:57.451Z,0.98
2022-12-11T08:11:04.700Z,0.90
2022-12-11T08:14:08.814Z,1.05
2022-12-11T08:17:10.965Z,1.12
2022-12-11T08:20:13.137Z,1.16
2022-12-11T08:23:15.307Z,1.20
2022-12-11T08:26:23.520Z,1.20
2022-12-11T08:29:25.710Z,1.13
2022-12-11T08:32:27.839Z,1.17
2022-12-11T08:35:29.999Z,1.10
2022-12-11T08:38:32.171Z,1.09
2022-12-11T08:41:34.352Z,1.08
2022-12-11T08:44:36.523Z,1.02
2022-12-11T08:47:38.708Z,1.05
2022-12-11T08:50:40.864Z,1.12
2022-12-11T08:53:43.613Z,1.05
2022-12-11T08:56:45.833Z,1.02
2022-12-11T08:59:47.993Z,1.07
2022-12-11T09:02:50.197Z,1.02
2022-12-11T09:05:52.480Z,1.09
2022-12-11T09:08:56.040Z,0.99
2022-12-11T09:11:59.279Z,1.05
2022-12-11T09:15:01.433Z,1.14
2022-12-11T09:18:03.833Z,1.26
2022-12-11T09:21:08.744Z,1.20
2022-12-11T09:24:12.287Z,1.16
2022-12-11T09:27:14.474Z,1.12
2022-12-11T09:30:16.615Z,1.21
2022-12-11T09:33:18.807Z,1.29
2022-12-11T09:36:20.982Z,1.27
2022-12-11T09:39:23.160Z,1.30
2022-12-11T09:42:31.895Z,1.23
2022-12-11T09:45:34.133Z,1.44
2022-12-11T09:48:37.188Z,1.52
2022-12-11T09:51:46.680Z,1.50
2022-12-11T09:54:51.291Z,1.51
2022-12-11T09:58:06.967Z,1.61
2022-12-11T10:01:18.217Z,1.63
2022-12-11T10:04:23.134Z,1.79
2022-12-11T10:07:38.732Z,1.84
2022-12-11T10:10:51.656Z,2.07
2022-12-11T10:14:06.939Z,2.05
2022-12-11T10:17:23.461Z,2.03
2022-12-11T10:20:35.250Z,1.92
2022-12-11T10:23:53.589Z,1.96
2022-12-11T10:26:58.015Z,1.86
2022-12-11T10:30:18.411Z,1.91
2022-12-11T10:33:23.670Z,1.93
2022-12-11T10:36:39.968Z,2.02
2022-12-11T10:39:43.019Z,2.23
2022-12-11T10:42:54.672Z,2.29
2022-12-11T10:45:57.004Z,2.20
2022-12-11T10:49:00.325Z,2.31
2022-12-11T10:52:10.752Z,2.28
2022-12-11T10:55:45.592Z,2.27
2022-12-11T10:58:49.990Z,2.46
2022-12-11T11:01:52.269Z,2.22
2022-12-11T11:04:56.032Z,2.30
2022-12-11T11:08:04.996Z,2.35
2022-12-11T11:11:09.069Z,2.10
2022-12-11T11:14:14.160Z,2.13
2022-12-11T11:17:17.635Z,2.17
2022-12-11T11:20:22.884Z,1.95
2022-12-11T11:23:25.595Z,2.17
2022-12-11T11:26:56.693Z,2.28
2022-12-11T11:30:00.716Z,2.15
2022-12-11T11:33:22.541Z,2.23
2022-12-11T11:36:27.581Z,1.95
2022-12-11T11:39:37.896Z,1.83
2022-12-11T11:43:00.236Z,1.90
2022-12-11T11:46:17.676Z,1.81
2022-12-11T11:50:06.803Z,1.67
2022-12-11T11:53:14.026Z,1.71
2022-12-11T11:56:27.696Z,1.75
2022-12-11T11:59:36.745Z,1.84
2022-12-11T12:02:40.897Z,1.88
2022-12-11T12:06:08.824Z,1.70
2022-12-11T12:09:20.415Z,1.78
2022-12-11T12:12:56.970Z,1.94
2022-12-11T12:16:01.157Z,1.92
2022-12-11T12:19:12.772Z,1.95
2022-12-11T12:22:24.856Z,1.72
2022-12-11T12:25:44.849Z,1.73
2022-12-11T12:28:51.935Z,1.67
2022-12-11T12:32:06.757Z,1.71
2022-12-11T12:35:37.787Z,1.55
2022-12-11T12:39:01.960Z,1.57
2022-12-11T12:42:13.424Z,1.57
2022-12-11T12:45:15.542Z,1.59
2022-12-11T12:48:17.989Z,1.46
2022-12-11T12:51:20.353Z,1.50
2022-12-11T12:54:23.627Z,1.56
2022-12-11T12:57:25.934Z,1.64
2022-12-11T13:00:32.016Z,1.73
2022-12-11T13:03:37.446Z,1.81
2022-12-11T13:06:44.704Z,1.87
2022-12-11T13:10:08.114Z,1.90
2022-12-11T13:13:38.356Z,1.91
2022-12-11T13:16:43.118Z,1.92
2022-12-11T13:19:45.355Z,1.80
2022-12-11T13:22:48.984Z,1.91
2022-12-11T13:25:55.623Z,1.83
2022-12-11T13:28:58.390Z,1.77
2022-12-11T13:32:09.697Z,1.85
2022-12-11T13:35:18.421Z,1.79
2022-12-11T13:38:21.134Z,1.86
2022-12-11T13:41:23.800Z,1.90
2022-12-11T13:44:40.821Z,1.95
2022-12-11T13:47:43.115Z,2.00
2022-12-11T13:50:46.267Z,2.01
2022-12-11T13:53:48.985Z,2.08
2022-12-11T13:56:59.025Z,1.89
2022-12-11T14:00:01.432Z,1.99
2022-12-11T14:03:07.508Z,1.98
2022-12-11T14:06:16.447Z,1.93
2022-12-11T14:09:23.622Z,1.75
2022-12-11T14:12:25.906Z,1.88
2022-12-11T14:15:30.442Z,1.82
2022-12-11T14:18:35.107Z,1.79
2022-12-11T14:21:37.824Z,1.91
2022-12-11T14:24:49.071Z,1.88
2022-12-11T14:27:56.042Z,1.86
2022-12-11T14:30:59.876Z,1.92
2022-12-11T14:34:11.817Z,1.73
2022-12-11T14:37:16.347Z,1.77
2022-12-11T14:40:20.686Z,1.61
2022-12-11T14:43:45.916Z,1.69
2022-12-11T14:47:15.878Z,1.59
2022-12-11T14:50:20.304Z,1.45
2022-12-11T14:53:36.807Z,1.50
2022-12-11T14:56:39.023Z,1.21
2022-12-11T14:59:44.778Z,1.27
2022-12-11T15:02:57.356Z,1.28
2022-12-11T15:06:00.176Z,1.41
2022-12-11T15:09:30.294Z,1.42
2022-12-11T15:12:32.815Z,1.30
2022-12-11T15:15:44.878Z,1.21
2022-12-11T15:18:50.002Z,1.22
2022-12-11T15:21:52.860Z,1.23
2022-12-11T15:24:55.270Z,1.33
2022-12-11T15:27:59.756Z,1.33
2022-12-11T15:31:08.106Z,1.35
2022-12-11T15:34:23.552Z,1.27
2022-12-11T15:37:31.718Z,1.18
2022-12-11T15:40:34.048Z,1.20
2022-12-11T15:43:37.627Z,1.23
2022-12-11T15:46:40.376Z,1.33
2022-12-11T15:49:42.761Z,1.20
2022-12-11T15:52:45.540Z,1.18
2022-12-11T15:55:47.694Z,1.23
2022-12-11T15:58:50.113Z,1.09
2022-12-11T16:01:52.316Z,1.11
2022-12-11T16:04:54.847Z,1.23
2022-12-11T16:07:59.625Z,1.12
2022-12-11T16:11:02.052Z,1.21
2022-12-11T16:14:04.588Z,1.26
2022-12-11T16:17:07.972Z,1.16
2022-12-11T16:20:11.255Z,1.15
2022-12-11T16:23:14.728Z,1.23
2022-12-11T16:26:16.898Z,1.15
2022-12-11T16:29:19.132Z,1.16
2022-12-11T16:32:21.357Z,1.11
2022-12-11T16:35:23.821Z,1.08
2022-12-11T16:38:26.093Z,0.99
2022-12-11T16:41:28.232Z,0.92
2022-12-11T16:44:30.920Z,1.02
2022-12-11T16:47:33.137Z,1.03
2022-12-11T16:50:36.416Z,0.89
2022-12-11T16:53:38.819Z,0.80
2022-12-11T16:56:41.161Z,0.79
2022-12-11T16:59:43.528Z,0.62
2022-12-11T17:02:45.963Z,0.67
2022-12-11T17:05:48.346Z,0.66
2022-12-11T17:08:50.861Z,0.60
2022-12-11T17:11:53.340Z,0.53
2022-12-11T17:14:56.847Z,0.37
2022-12-11T17:18:00.001Z,0.23
2022-12-11T17:21:10.663Z,0.19
2022-12-11T17:24:12.906Z,0.25
2022-12-11T17:27:15.801Z,0.23
2022-12-11T17:30:18.539Z,0.22
2022-12-11T17:33:21.226Z,0.22
2022-12-11T17:36:23.426Z,0.13
2022-12-11T17:39:25.800Z,0.09
2022-12-11T17:42:28.142Z,0.18
2022-12-11T17:45:30.603Z,0.05
2022-12-11T17:48:33.707Z,-0.05
2022-12-11T17:51:36.248Z,0.04
2022-12-11T17:54:39.405Z,0.12
2022-12-11T17:57:42.166Z,0.06
2022-12-11T18:00:47.829Z,0.05
2022-12-11T18:03:51.078Z,0.11
2022-12-11T18:06:53.688Z,0.07
2022-12-11T18:09:57.036Z,-0.06
2022-12-11T18:13:00.734Z,-0.06
2022-12-11T18:16:06.332Z,-0.01
2022-12-11T18:19:09.099Z,0.09
2022-12-11T18:22:12.523Z,-0.04
2022-12-11T18:25:16.192Z,-0.15
2022-12-11T18:28:19.579Z,-0.11
2022-12-11T18:31:23.065Z,-0.11
2022-12-11T18:34:25.634Z,-0.07
2022-12-11T18:37:28.520Z,0.12
2022-12-11T18:40:31.969Z,0.15
2022-12-11T18:43:36.986Z,0.10
2022-12-11T18:46:39.925Z,0.05
2022-12-11T18:49:43.788Z,0.11
2022-12-11T18:52:46.294Z,0.25
2022-12-11T18:55:49.162Z,0.27
2022-12-11T18:58:52.019Z,0.28
2022-12-11T19:01:54.544Z,0.19
2022-12-11T19:04:57.605Z,0.10
2022-12-11T19:08:00.661Z,0.13
2022-12-11T19:11:04.565Z,0.08
2022-12-11T19:14:08.300Z,0.00
2022-12-11T19:17:10.971Z,0.10
2022-12-11T19:20:40.168Z,-0.18
2022-12-11T19:23:37.740Z,-0.10
2022-12-11T19:26:41.216Z,-0.03
2022-12-11T19:29:45.148Z,-0.15
2022-12-11T19:32:47.578Z,-0.14
2022-12-11T19:35:49.985Z,-0.17
2022-12-11T19:38:59.288Z,-0.18
2022-12-11T19:42:03.801Z,-0.21
2022-12-11T19:45:06.967Z,-0.33
2022-12-11T19:48:09.738Z,-0.28
2022-12-11T19:51:21.797Z,-0.44
2022-12-11T19:54:27.188Z,-0.42
2022-12-11T19:57:32.685Z,-0.43
2022-12-11T20:00:37.854Z,-0.36
2022-12-11T20:03:41.680Z,-0.27
2022-12-11T20:06:46.223Z,-0.24
2022-12-11T20:09:48.689Z,-0.23
2022-12-11T20:12:52.544Z,-0.25
2022-12-11T20:15:54.720Z,-0.22
2022-12-11T20:18:57.605Z,-0.26
2022-12-11T20:21:59.789Z,-0.38
2022-12-11T20:25:02.210Z,-0.36
2022-12-11T20:28:04.974Z,-0.24
2022-12-11T20:31:13.559Z,-0.34
2022-12-11T20:34:19.964Z,-0.42
2022-12-11T20:37:22.634Z,-0.49
2022-12-11T20:40:25.599Z,-0.64
2022-12-11T20:43:29.104Z,-0.69
2022-12-11T20:46:31.974Z,-0.70
2022-12-11T20:49:34.235Z,-0.85
2022-12-11T20:52:37.537Z,-1.01
2022-12-11T20:55:40.831Z,-0.98
2022-12-11T20:58:43.946Z,-0.90
2022-12-11T21:01:46.434Z,-0.84
2022-12-11T21:04:48.953Z,-0.84
2022-12-11T21:07:54.071Z,-0.84
2022-12-11T21:10:56.582Z,-0.68
2022-12-11T21:13:58.757Z,-0.83
2022-12-11T21:17:01.029Z,-0.89
2022-12-11T21:20:03.997Z,-0.91
2022-12-11T21:23:06.254Z,-0.98
2022-12-11T21:26:08.509Z,-0.64
2022-12-11T21:29:10.736Z,-0.73
2022-12-11T21:32:13.796Z,-0.97
2022-12-11T21:35:16.440Z,-0.93
2022-12-11T21:38:18.633Z,-0.85
2022-12-11T21:41:23.660Z,-0.94
2022-12-11T21:45:58.827Z,-0.94
2022-12-11T21:47:47.887Z,-0.86
2022-12-11T21:50:51.510Z,-0.75
2022-12-11T21:53:54.164Z,-0.58
2022-12-11T21:56:56.840Z,-0.58
2022-12-11T21:59:59.358Z,-0.61
2022-12-11T22:03:01.483Z,-0.54
2022-12-11T22:06:03.808Z,-0.78
2022-12-11T22:09:06.015Z,-0.79
2022-12-11T22:12:08.531Z,-0.87
2022-12-11T22:15:11.244Z,-1.00
2022-12-11T22:18:13.761Z,-0.94
2022-12-11T22:21:16.364Z,-0.88
2022-12-11T22:24:18.580Z,-0.87
2022-12-11T22:27:23.900Z,-1.12
2022-12-11T22:30:26.496Z,-0.97
2022-12-11T22:33:28.710Z,-0.96
2022-12-11T22:36:31.038Z,-0.93
2022-12-11T22:39:33.269Z,-1.10
2022-12-11T22:42:35.493Z,-0.98
2022-12-11T22:45:40.725Z,-1.01
2022-12-11T22:48:42.943Z,-1.03
2022-12-11T22:51:45.413Z,-1.05
2022-12-11T22:54:47.608Z,-1.03
2022-12-11T22:57:49.779Z,-1.23
2022-12-11T23:00:51.914Z,-1.18
2022-12-11T23:03:54.196Z,-1.09
2022-12-11T23:06:56.567Z,-1.19
2022-12-11T23:09:59.071Z,-1.06
2022-12-11T23:13:01.576Z,-1.31
2022-12-11T23:16:03.877Z,-1.31
2022-12-11T23:19:06.070Z,-1.38
2022-12-11T23:22:08.295Z,-1.33
2022-12-11T23:25:13.793Z,-1.30
2022-12-11T23:28:16.073Z,-1.33
2022-12-11T23:31:18.419Z,-1.41
2022-12-11T23:34:20.640Z,-1.38
2022-12-11T23:37:22.883Z,-1.36
2022-12-11T23:40:25.043Z,-1.48
2022-12-11T23:43:27.541Z,-1.45
2022-12-11T23:46:29.777Z,-1.46
2022-12-11T23:49:32.153Z,-1.54
2022-12-11T23:52:34.318Z,-1.70
2022-12-11T23:55:39.180Z,-1.64
2022-12-11T23:58:41.934Z,-1.75
